Time;durP1;ratioP1;P1;durP2;ratioP2;P2;SDS_P1;SDS_P2;PMS_P1;PMS_P2;Temp;Humidity;BMP_temperature;BMP_pressure;BME280_temperature;BME280_humidity;BME280_pressure;Samples;Min_cycle;Max_cycle;Signal;HPM_P1;HPM_P2
2021/12/26 00:01:00;;;;;;;7.08;6.47;;;;;;;1.82;84.12;100356.06;459552;114;922618;-74
2021/12/26 00:02:04;;;;;;;7.68;7.08;;;;;;;1.83;84.10;100355.06;455517;114;930540;-74
2021/12/26 00:03:07;;;;;;;8.02;7.35;;;;;;;1.85;84.01;100355.75;460953;113;922452;-73
2021/12/26 00:04:16;;;;;;;8.34;7.61;;;;;;;1.85;84.00;100352.22;460279;114;922887;-72
2021/12/26 00:05:20;;;;;;;7.48;6.81;;;;;;;1.86;83.90;100356.59;458441;114;922602;-73
2021/12/26 00:06:26;;;;;;;12.30;9.75;;;;;;;1.87;83.86;100366.35;459955;114;922244;-73
2021/12/26 00:07:31;;;;;;;11.31;9.76;;;;;;;1.84;83.74;100380.10;452092;114;922292;-73
2021/12/26 00:08:36;;;;;;;9.65;7.87;;;;;;;1.83;83.57;100383.78;454901;115;922399;-74
2021/12/26 00:09:39;;;;;;;10.99;9.38;;;;;;;1.80;83.42;100379.59;458255;114;930464;-73
2021/12/26 00:10:42;;;;;;;11.09;9.81;;;;;;;1.76;83.16;100378.25;458739;113;922867;-74
2021/12/26 00:11:46;;;;;;;11.74;10.04;;;;;;;1.74;83.08;100374.03;460074;112;922793;-74
2021/12/26 00:12:49;;;;;;;10.97;9.34;;;;;;;1.73;83.11;100373.19;458115;114;922955;-74
2021/12/26 00:13:55;;;;;;;10.36;9.08;;;;;;;1.73;83.12;100367.80;457821;114;922625;-74
2021/12/26 00:14:58;;;;;;;9.83;8.88;;;;;;;1.74;83.16;100374.88;459493;113;922591;-74
2021/12/26 00:16:03;;;;;;;8.79;7.92;;;;;;;1.75;83.16;100367.66;459794;114;922619;-75
2021/12/26 00:17:07;;;;;;;9.02;8.13;;;;;;;1.75;83.08;100379.25;452049;116;930490;-75
2021/12/26 00:18:11;;;;;;;8.69;7.84;;;;;;;1.76;83.04;100380.09;456921;114;923424;-74
2021/12/26 00:19:14;;;;;;;8.22;7.42;;;;;;;1.75;83.02;100384.62;461247;112;922629;-74
2021/12/26 00:20:18;;;;;;;8.34;7.54;;;;;;;1.76;83.02;100383.63;452719;114;922804;-73
2021/12/26 00:21:22;;;;;;;7.72;6.99;;;;;;;1.77;82.96;100385.28;450349;116;930540;-73
2021/12/26 00:22:26;;;;;;;7.19;6.49;;;;;;;1.78;82.92;100386.97;452969;114;922967;-74
2021/12/26 00:23:29;;;;;;;7.35;6.68;;;;;;;1.79;82.89;100377.91;452499;114;922735;-74
2021/12/26 00:24:33;;;;;;;6.92;6.34;;;;;;;1.79;82.74;100377.91;451812;114;925650;-74
2021/12/26 00:25:36;;;;;;;7.74;7.04;;;;;;;1.79;82.74;100377.91;455272;116;930628;-73
2021/12/26 00:26:40;;;;;;;8.20;7.41;;;;;;;1.82;82.78;100372.19;457350;114;923656;-74
2021/12/26 00:27:43;;;;;;;8.20;7.42;;;;;;;1.84;82.77;100377.41;457973;114;923066;-73
2021/12/26 00:28:48;;;;;;;7.52;6.82;;;;;;;1.85;82.72;100363.81;460105;114;930539;-73
2021/12/26 00:29:51;;;;;;;7.74;7.04;;;;;;;1.86;82.76;100365.50;456431;114;922649;-73
2021/12/26 00:30:55;;;;;;;6.71;6.12;;;;;;;1.87;82.74;100371.73;452175;115;922606;-72
2021/12/26 00:31:58;;;;;;;7.78;7.10;;;;;;;1.88;82.59;100370.70;456209;115;930613;-74
2021/12/26 00:33:02;;;;;;;7.65;6.93;;;;;;;1.88;82.51;100368.84;458013;114;930511;-72
2021/12/26 00:34:06;;;;;;;8.14;7.44;;;;;;;1.88;82.46;100368.01;453389;115;922755;-73
2021/12/26 00:35:12;;;;;;;7.95;7.27;;;;;;;1.87;82.43;100372.57;455608;114;922766;-73
2021/12/26 00:36:16;;;;;;;8.49;7.73;;;;;;;1.89;82.33;100362.48;457056;114;922584;-74
2021/12/26 00:37:19;;;;;;;6.75;6.16;;;;;;;1.90;82.29;100369.54;454552;116;922681;-73
2021/12/26 00:38:23;;;;;;;6.66;6.06;;;;;;;1.90;82.20;100363.31;452020;115;931135;-72
2021/12/26 00:39:26;;;;;;;6.72;6.20;;;;;;;1.90;82.16;100364.16;454326;116;923193;-74
2021/12/26 00:40:32;;;;;;;6.37;5.87;;;;;;;1.90;82.10;100364.16;458347;115;922485;-74
2021/12/26 00:41:39;;;;;;;5.75;5.35;;;;;;;1.89;82.11;100370.54;451230;116;922688;-73
2021/12/26 00:42:42;;;;;;;5.49;4.96;;;;;;;1.90;82.07;100361.48;456328;113;922931;-73
2021/12/26 00:43:45;;;;;;;5.06;4.61;;;;;;;1.89;81.96;100356.25;456885;114;922637;-75
2021/12/26 00:44:50;;;;;;;5.24;4.84;;;;;;;1.89;81.91;100357.09;459932;114;922580;-74
2021/12/26 00:45:54;;;;;;;5.27;4.79;;;;;;;1.88;81.84;100350.03;457132;113;922632;-73
2021/12/26 00:46:57;;;;;;;4.97;4.56;;;;;;;1.87;81.70;100355.59;458509;113;922618;-73
2021/12/26 00:48:02;;;;;;;4.38;4.08;;;;;;;1.86;81.70;100345.84;459711;114;922443;-74
2021/12/26 00:49:05;;;;;;;5.15;4.75;;;;;;;1.87;81.70;100344.84;460726;114;930426;-73
2021/12/26 00:50:12;;;;;;;4.42;4.12;;;;;;;1.87;81.66;100350.22;457922;113;922461;-74
2021/12/26 00:51:15;;;;;;;4.78;4.44;;;;;;;1.88;81.70;100354.56;458041;114;922832;-74
2021/12/26 00:52:19;;;;;;;4.94;4.54;;;;;;;1.88;81.68;100333.91;462278;114;922570;-73
2021/12/26 00:53:22;;;;;;;5.33;4.92;;;;;;;1.89;81.65;100335.59;457449;113;922383;-73
2021/12/26 00:54:26;;;;;;;5.59;5.06;;;;;;;1.89;81.57;100332.91;453048;115;922889;-73
2021/12/26 00:55:29;;;;;;;5.33;4.76;;;;;;;1.89;81.44;100335.59;458538;112;930384;-73
2021/12/26 00:56:32;;;;;;;5.33;4.83;;;;;;;1.88;81.40;100338.44;470921;112;922631;-73
2021/12/26 00:57:36;;;;;;;4.94;4.40;;;;;;;1.88;81.37;100344.66;470431;111;922970;-73
2021/12/26 00:58:40;;;;;;;4.65;4.25;;;;;;;1.85;81.34;100334.25;469863;111;930787;-73
2021/12/26 00:59:43;;;;;;;4.41;4.01;;;;;;;1.84;81.27;100337.94;471146;112;923113;-75
2021/12/26 01:00:49;;;;;;;3.36;3.06;;;;;;;1.82;81.27;100341.81;470602;112;922793;-74
2021/12/26 01:01:54;;;;;;;3.00;2.67;;;;;;;1.81;81.28;100340.97;470469;111;923034;-73
2021/12/26 01:03:01;;;;;;;2.74;2.54;;;;;;;1.79;81.27;100342.13;470829;111;922513;-74
2021/12/26 01:04:05;;;;;;;3.19;2.89;;;;;;;1.79;81.33;100336.75;469997;112;922630;-73
2021/12/26 01:05:10;;;;;;;2.48;2.28;;;;;;;1.78;81.33;100338.59;471937;111;922790;-74
2021/12/26 01:06:14;;;;;;;2.41;2.15;;;;;;;1.77;81.38;100339.59;470556;111;922697;-74
2021/12/26 01:07:40;;;;;;;2.38;2.18;;;;;;;1.75;81.20;100336.24;469003;112;930329;-73
2021/12/26 01:08:31;;;;;;;2.67;2.46;;;;;;;1.74;81.08;100342.63;467385;112;922502;-74
2021/12/26 01:09:35;;;;;;;2.49;2.29;;;;;;;1.71;81.17;100332.18;470774;109;922568;-74
2021/12/26 01:10:52;;;;;;;2.28;2.08;;;;;;;1.71;81.26;100339.42;470118;112;922599;-73
2021/12/26 01:12:00;;;;;;;2.82;2.59;;;;;;;1.70;81.29;100338.59;470586;111;930349;-73
2021/12/26 01:13:22;;;;;;;2.89;2.63;;;;;;;1.70;81.29;100335.05;469302;109;922692;-74
2021/12/26 01:14:26;;;;;;;3.80;3.24;;;;;;;1.69;81.23;100334.21;462758;112;923398;-73
2021/12/26 01:15:27;;;;;;;4.54;3.53;;;;;;;1.68;81.19;100343.27;462928;112;922615;-73
2021/12/26 01:16:33;;;;;;;5.75;4.40;;;;;;;1.66;81.10;100345.27;469462;110;922877;-73
2021/12/26 01:17:39;;;;;;;6.06;4.51;;;;;;;1.66;81.08;100331.83;469689;111;923298;-72
2021/12/26 01:18:51;;;;;;;5.38;4.22;;;;;;;1.66;81.13;100340.73;470626;111;922866;-73
2021/12/26 01:19:54;;;;;;;6.24;4.61;;;;;;;1.66;80.97;100347.95;470285;111;922558;-73
2021/12/26 01:22:11;;;;;;;5.14;4.28;;;;;;;1.74;80.62;100344.46;480253;107;923353;-74
2021/12/26 01:23:19;;;;;;;6.56;4.82;;;;;;;1.61;80.51;100344.92;470898;111;922750;-73
2021/12/26 01:24:22;;;;;;;3.49;3.14;;;;;;;1.60;80.44;100360.20;471114;111;922675;-74
2021/12/26 01:25:26;;;;;;;3.61;3.22;;;;;;;1.60;80.41;100370.95;468924;111;923252;-73
2021/12/26 01:26:30;;;;;;;3.99;3.64;;;;;;;1.58;80.25;100372.97;465970;112;930583;-73
2021/12/26 01:27:33;;;;;;;3.29;2.99;;;;;;;1.58;80.12;100372.13;466543;113;922608;-74
2021/12/26 01:28:38;;;;;;;2.78;2.56;;;;;;;1.56;80.07;100374.97;465776;111;922743;-73
2021/12/26 01:29:42;;;;;;;2.26;2.06;;;;;;;1.55;79.94;100386.72;465357;112;922514;-74
2021/12/26 01:30:46;;;;;;;2.44;2.23;;;;;;;1.52;79.69;100381.68;466621;112;930438;-74
2021/12/26 01:31:49;;;;;;;2.66;2.46;;;;;;;1.50;79.60;100388.20;466630;112;922631;-74
2021/12/26 01:32:57;;;;;;;4.40;4.10;;;;;;;1.46;79.54;100392.22;441324;118;922821;-74
2021/12/26 01:34:15;;;;;;;4.08;3.69;;;;;;;1.43;79.33;100396.09;460014;113;922713;-72
2021/12/26 01:35:21;;;;;;;2.47;2.27;;;;;;;1.37;79.12;100398.56;442220;118;922817;-74
2021/12/26 01:36:38;;;;;;;1.88;1.78;;;;;;;1.34;79.32;100406.92;428429;121;923623;-73
2021/12/26 01:38:00;;;;;;;2.14;1.91;;;;;;;1.29;79.17;100420.00;457031;113;922988;-73
2021/12/26 01:39:08;;;;;;;1.88;1.63;;;;;;;1.25;79.22;100424.86;465610;112;922606;-74
2021/12/26 01:40:13;;;;;;;1.93;1.71;;;;;;;1.22;79.25;100422.47;463433;111;922454;-73
2021/12/26 01:41:19;;;;;;;2.00;1.80;;;;;;;1.19;79.18;100417.43;465810;113;922684;-75
2021/12/26 01:42:33;;;;;;;2.56;1.91;;;;;;;1.17;79.20;100420.27;466045;113;922884;-74
2021/12/26 01:43:59;;;;;;;1.73;1.63;;;;;;;1.17;79.19;100422.95;466685;111;922764;-73
2021/12/26 01:45:08;;;;;;;1.56;1.29;;;;;;;1.16;79.14;100434.69;465803;111;922727;-73
2021/12/26 01:46:14;;;;;;;1.73;1.59;;;;;;;1.14;78.99;100438.55;466461;112;922694;-74
2021/12/26 01:47:18;;;;;;;1.81;1.36;;;;;;;1.11;78.95;100428.10;464730;112;923217;-74
2021/12/26 01:48:22;;;;;;;1.56;1.45;;;;;;;1.10;79.04;100421.89;464898;112;922595;-74
2021/12/26 01:49:29;;;;;;;1.62;1.52;;;;;;;1.12;79.16;100425.27;458176;114;922641;-74
2021/12/26 01:50:33;;;;;;;1.74;1.17;;;;;;;1.14;79.04;100425.12;459097;113;922592;-73
2021/12/26 01:51:37;;;;;;;1.26;1.15;;;;;;;1.12;78.70;100425.27;459684;114;922721;-74
2021/12/26 01:52:41;;;;;;;1.61;1.51;;;;;;;1.10;78.67;100407.65;449249;115;923103;-73
2021/12/26 01:53:44;;;;;;;1.51;1.22;;;;;;;1.08;78.90;100397.06;456924;116;923072;-73
2021/12/26 01:54:59;;;;;;;1.32;1.22;;;;;;;1.10;79.12;100384.30;458121;114;930282;-74
2021/12/26 01:55:54;;;;;;;1.77;1.67;;;;;;;1.13;79.20;100380.47;455729;115;930174;-74
2021/12/26 01:57:00;;;;;;;3.18;1.35;;;;;;;1.15;79.29;100368.58;457330;114;922960;-74
2021/12/26 01:58:06;;;;;;;1.27;1.14;;;;;;;1.20;79.40;100362.73;458753;115;930254;-74
2021/12/26 01:59:12;;;;;;;1.22;1.12;;;;;;;1.23;79.50;100355.18;457379;115;922567;-72
2021/12/26 02:00:22;;;;;;;1.71;1.61;;;;;;;1.26;79.54;100351.34;455301;114;923116;-73
2021/12/26 02:01:26;;;;;;;1.46;1.36;;;;;;;1.29;79.53;100358.22;445272;116;922582;-73
2021/12/26 02:02:30;;;;;;;1.62;1.52;;;;;;;1.32;79.49;100364.14;451737;116;922979;-74
2021/12/26 02:03:35;;;;;;;1.48;1.34;;;;;;;1.34;79.48;100374.70;457654;114;930338;-73
2021/12/26 02:04:40;;;;;;;1.50;1.40;;;;;;;1.35;79.37;100369.17;445248;117;930314;-73
2021/12/26 02:05:43;;;;;;;1.58;1.48;;;;;;;1.35;79.37;100369.17;457994;115;930437;-72
2021/12/26 02:06:47;;;;;;;1.65;1.55;;;;;;;1.38;79.39;100376.08;449146;117;922650;-73
2021/12/26 02:07:51;;;;;;;1.61;1.51;;;;;;;1.39;79.40;100378.59;437919;117;923141;-73
2021/12/26 02:08:55;;;;;;;1.18;1.06;;;;;;;1.40;79.29;100384.80;454188;115;922951;-73
2021/12/26 02:09:59;;;;;;;1.57;1.27;;;;;;;1.39;79.06;100389.33;457285;115;927781;-74
2021/12/26 02:11:03;;;;;;;1.18;1.07;;;;;;;1.38;78.97;100393.02;458667;114;922580;-73
2021/12/26 02:12:08;;;;;;;1.35;1.25;;;;;;;1.38;78.78;100387.64;442908;117;930576;-74
2021/12/26 02:13:11;;;;;;;1.61;1.51;;;;;;;1.37;78.58;100394.04;435197;119;922729;-73
2021/12/26 02:14:15;;;;;;;1.40;1.28;;;;;;;1.36;78.65;100392.34;459491;113;923077;-73
2021/12/26 02:15:21;;;;;;;1.83;1.73;;;;;;;1.37;78.73;100391.35;463280;111;922722;-74
2021/12/26 02:16:38;;;;;;;1.37;1.27;;;;;;;1.40;78.81;100398.23;465193;113;922680;-74
2021/12/26 02:17:42;;;;;;;1.77;1.54;;;;;;;1.42;78.73;100402.45;466751;113;922866;-73
2021/12/26 02:18:46;;;;;;;1.39;1.29;;;;;;;1.42;78.67;100396.23;466417;112;922437;-73
2021/12/26 02:19:51;;;;;;;2.69;1.30;;;;;;;1.43;78.54;100400.62;458085;113;922746;-72
2021/12/26 02:21:16;;;;;;;1.47;1.27;;;;;;;1.41;78.40;100397.23;448439;117;922553;-73
2021/12/26 02:22:12;;;;;;;1.86;1.49;;;;;;;1.40;78.37;100400.92;443321;118;923085;-73
2021/12/26 02:23:18;;;;;;;1.45;1.29;;;;;;;1.40;78.27;100412.51;452836;114;923662;-73
2021/12/26 02:24:26;;;;;;;1.27;1.08;;;;;;;1.41;78.25;100413.36;452993;116;922883;-73
2021/12/26 02:25:31;;;;;;;1.70;1.60;;;;;;;1.38;77.89;100406.45;453898;116;922512;-73
2021/12/26 02:27:42;;;;;;;1.22;1.12;;;;;;;1.33;77.81;100399.86;441115;118;923318;-74
2021/12/26 02:28:47;;;;;;;1.27;1.06;;;;;;;1.32;77.77;100404.42;452596;116;922819;-73
2021/12/26 02:29:51;;;;;;;1.23;0.93;;;;;;;1.30;77.60;100417.16;455061;114;922450;-73
2021/12/26 02:30:57;;;;;;;0.87;0.87;;;;;;;1.24;77.45;100418.64;454981;114;922393;-74
2021/12/26 02:32:00;;;;;;;1.12;1.02;;;;;;;1.21;77.45;100420.81;453502;115;922928;-73
2021/12/26 02:33:07;;;;;;;1.71;1.15;;;;;;;1.20;77.70;100414.59;453129;114;922512;-73
2021/12/26 02:34:09;;;;;;;1.26;1.16;;;;;;;1.19;77.77;100417.43;453013;116;923188;-73
2021/12/26 02:35:14;;;;;;;1.42;1.32;;;;;;;1.20;77.84;100411.06;453245;114;922591;-74
2021/12/26 02:36:18;;;;;;;1.77;1.61;;;;;;;1.20;78.06;100397.64;446596;116;922676;-73
2021/12/26 02:37:22;;;;;;;1.92;1.58;;;;;;;1.22;78.02;100400.98;446776;116;922536;-73
2021/12/26 02:38:25;;;;;;;3.41;2.16;;;;;;;1.23;78.09;100395.46;454414;116;930385;-73
2021/12/26 02:39:31;;;;;;;5.21;3.44;;;;;;;1.26;78.21;100399.69;445165;116;922691;-73
2021/12/26 02:40:35;;;;;;;6.28;3.68;;;;;;;1.29;78.33;100398.51;446063;116;923127;-73
2021/12/26 02:41:39;;;;;;;4.41;3.18;;;;;;;1.32;78.35;100406.27;436561;121;922693;-74
2021/12/26 02:42:43;;;;;;;3.78;2.93;;;;;;;1.34;78.34;100410.45;439837;117;922709;-73
2021/12/26 02:43:47;;;;;;;3.06;2.21;;;;;;;1.35;78.21;100416.67;438379;118;922967;-72
2021/12/26 02:44:51;;;;;;;4.29;2.47;;;;;;;1.35;78.20;100422.89;447055;118;922443;-72
2021/12/26 02:45:55;;;;;;;3.46;2.51;;;;;;;1.38;78.24;100427.13;444585;118;930666;-72
2021/12/26 02:46:58;;;;;;;4.09;2.97;;;;;;;1.39;78.18;100436.84;445147;118;922915;-73
2021/12/26 02:48:04;;;;;;;4.98;3.98;;;;;;;1.38;77.91;100443.23;443641;117;922945;-72
2021/12/26 02:49:08;;;;;;;4.11;2.96;;;;;;;1.36;77.57;100447.91;442127;119;922525;-73
2021/12/26 02:50:20;;;;;;;3.40;2.60;;;;;;;1.32;77.37;100433.13;446136;118;922654;-73
2021/12/26 02:51:24;;;;;;;2.91;2.53;;;;;;;1.29;77.39;100425.37;442433;118;923677;-74
2021/12/26 02:52:27;;;;;;;3.66;2.78;;;;;;;1.29;77.66;100420.00;454078;116;922634;-74
2021/12/26 02:53:31;;;;;;;4.49;3.07;;;;;;;1.29;77.78;100426.22;454370;116;922460;-73
2021/12/26 02:54:34;;;;;;;2.81;2.45;;;;;;;1.31;77.87;100426.91;453635;115;930982;-73
2021/12/26 02:55:38;;;;;;;4.37;2.86;;;;;;;1.33;77.83;100421.35;452831;115;922565;-74
2021/12/26 02:56:41;;;;;;;3.32;2.36;;;;;;;1.33;77.84;100416.83;453434;114;923238;-73
2021/12/26 02:57:53;;;;;;;3.69;2.76;;;;;;;1.34;77.85;100418.52;454530;116;922787;-73
2021/12/26 02:58:57;;;;;;;2.98;2.28;;;;;;;1.36;77.93;100416.53;453714;115;926020;-74
2021/12/26 03:00:02;;;;;;;2.56;1.90;;;;;;;1.39;77.94;100420.72;453625;115;922603;-73
2021/12/26 03:01:16;;;;;;;2.56;1.82;;;;;;;1.39;77.90;100413.51;453727;114;922538;-71
2021/12/26 03:02:19;;;;;;;3.29;2.33;;;;;;;1.40;77.86;100412.51;453224;115;923053;-72
2021/12/26 03:03:23;;;;;;;2.19;1.61;;;;;;;1.42;77.82;100412.36;453931;114;922605;-71
2021/12/26 03:04:26;;;;;;;2.69;1.92;;;;;;;1.43;77.85;100419.42;453560;116;930919;-71
2021/12/26 03:05:33;;;;;;;2.82;1.94;;;;;;;1.44;77.86;100419.23;454243;116;922647;-73
2021/12/26 03:07:46;;;;;;;3.81;3.34;;;;;;;1.46;77.77;100413.71;451677;116;922715;-73
2021/12/26 03:08:53;;;;;;;4.34;3.93;;;;;;;1.45;77.50;100420.93;454020;116;923025;-71
2021/12/26 03:09:59;;;;;;;5.33;4.78;;;;;;;1.44;77.41;100423.77;453492;115;922530;-72
2021/12/26 03:11:00;;;;;;;3.63;3.03;;;;;;;1.43;77.40;100419.42;454165;116;922761;-72
2021/12/26 03:12:04;;;;;;;2.87;2.62;;;;;;;1.42;77.43;100415.89;453999;116;922796;-72
2021/12/26 03:13:10;;;;;;;2.76;2.40;;;;;;;1.42;77.28;100423.95;453820;116;922565;-73
2021/12/26 03:14:14;;;;;;;2.73;2.34;;;;;;;1.42;77.13;100423.10;453760;116;922517;-73
2021/12/26 03:15:18;;;;;;;3.21;2.22;;;;;;;1.38;77.12;100419.87;453583;114;922404;-72
2021/12/26 03:16:22;;;;;;;2.54;1.95;;;;;;;1.39;76.95;100412.66;454416;116;922439;-72
2021/12/26 03:17:25;;;;;;;2.67;2.21;;;;;;;1.35;76.85;100424.73;455438;116;922437;-73
2021/12/26 03:18:29;;;;;;;2.22;1.94;;;;;;;1.34;76.98;100423.05;453954;114;930141;-73
2021/12/26 03:19:34;;;;;;;2.16;1.89;;;;;;;1.34;76.81;100423.05;453402;116;922594;-74
2021/12/26 03:20:42;;;;;;;2.29;1.68;;;;;;;1.30;76.51;100421.69;453783;116;931011;-72
2021/12/26 03:21:51;;;;;;;2.97;2.07;;;;;;;1.27;76.58;100422.83;453765;114;922936;-71
2021/12/26 03:22:55;;;;;;;4.04;2.90;;;;;;;1.27;76.60;100412.09;453063;115;923096;-72
2021/12/26 03:23:58;;;;;;;3.08;2.24;;;;;;;1.23;76.61;100422.32;453724;116;922761;-72
2021/12/26 03:25:04;;;;;;;2.84;2.27;;;;;;;1.24;76.76;100415.95;453326;116;922616;-70
2021/12/26 03:26:08;;;;;;;4.42;3.25;;;;;;;1.25;76.79;100411.42;445706;116;923277;-72
2021/12/26 03:27:12;;;;;;;4.39;3.52;;;;;;;1.27;76.63;100411.28;446315;116;922733;-73
2021/12/26 03:28:17;;;;;;;3.44;3.06;;;;;;;1.25;76.75;100420.33;447101;117;923224;-72
2021/12/26 03:29:21;;;;;;;2.87;2.30;;;;;;;1.28;76.82;100429.05;454380;116;922652;-71
2021/12/26 03:30:28;;;;;;;2.22;1.81;;;;;;;1.27;76.67;100422.02;453226;115;930456;-72
2021/12/26 03:31:32;;;;;;;3.28;2.66;;;;;;;1.23;76.17;100422.32;453127;115;930492;-74
2021/12/26 03:32:35;;;;;;;3.04;2.12;;;;;;;1.15;76.10;100424.13;454329;115;923240;-73
2021/12/26 03:33:39;;;;;;;3.39;2.16;;;;;;;1.09;75.97;100428.28;454209;114;930290;-71
2021/12/26 03:34:49;;;;;;;1.92;1.61;;;;;;;1.04;76.02;100427.08;451258;116;930493;-71
2021/12/26 03:35:53;;;;;;;2.22;1.65;;;;;;;1.01;76.10;100432.73;450402;116;922993;-73
2021/12/26 03:36:56;;;;;;;1.66;1.49;;;;;;;0.99;76.23;100418.66;454212;116;930279;-72
2021/12/26 03:38:02;;;;;;;1.56;1.46;;;;;;;0.98;76.50;100420.48;453965;114;922951;-72
2021/12/26 03:39:13;;;;;;;1.94;1.59;;;;;;;0.99;76.42;100416.81;437869;120;931066;-72
2021/12/26 03:40:17;;;;;;;1.99;1.64;;;;;;;0.99;76.47;100419.49;450716;116;922553;-72
2021/12/26 03:41:22;;;;;;;2.09;1.47;;;;;;;1.01;76.61;100424.69;454437;115;922517;-71
2021/12/26 03:42:31;;;;;;;2.18;1.42;;;;;;;1.01;76.64;100422.84;452679;115;923591;-73
2021/12/26 03:43:35;;;;;;;1.84;1.34;;;;;;;1.02;76.48;100434.42;454003;116;923416;-73
2021/12/26 03:44:39;;;;;;;2.14;1.26;;;;;;;1.01;76.39;100444.32;454183;116;922691;-71
2021/12/26 03:45:48;;;;;;;1.27;0.99;;;;;;;0.98;76.15;100444.65;453825;116;922671;-71
2021/12/26 03:46:51;;;;;;;1.34;1.23;;;;;;;0.95;75.86;100436.89;451168;115;930154;-72
2021/12/26 03:47:55;;;;;;;2.74;1.70;;;;;;;0.89;75.80;100433.98;453494;116;922784;-73
2021/12/26 03:49:01;;;;;;;4.94;1.89;;;;;;;0.85;75.85;100428.09;444921;117;922717;-71
2021/12/26 03:50:06;;;;;;;1.98;1.83;;;;;;;0.82;75.84;100439.16;443827;116;922633;-71
2021/12/26 03:51:10;;;;;;;1.86;1.55;;;;;;;0.79;75.88;100445.67;453789;116;923107;-71
2021/12/26 03:52:13;;;;;;;1.64;1.48;;;;;;;0.79;75.84;100444.82;454310;116;922619;-73
2021/12/26 03:53:17;;;;;;;1.82;1.31;;;;;;;0.79;76.09;100448.34;453468;115;922606;-72
2021/12/26 03:54:22;;;;;;;1.72;1.61;;;;;;;0.83;76.31;100446.19;452909;115;922699;-71
2021/12/26 03:55:25;;;;;;;2.24;1.88;;;;;;;0.87;76.49;100442.22;452999;116;922631;-73
2021/12/26 03:56:31;;;;;;;1.87;1.45;;;;;;;0.91;76.68;100443.58;454003;115;923028;-71
2021/12/26 03:57:38;;;;;;;2.14;1.96;;;;;;;0.95;76.66;100442.26;452430;115;923162;-71
2021/12/26 03:58:42;;;;;;;2.68;1.84;;;;;;;0.99;76.66;100434.76;453823;116;922474;-70
2021/12/26 03:59:46;;;;;;;2.88;2.50;;;;;;;1.02;76.76;100437.11;453876;114;922557;-73
2021/12/26 04:00:50;;;;;;;1.74;1.62;;;;;;;1.05;76.82;100443.00;453697;116;930470;-72
2021/12/26 04:01:55;;;;;;;1.82;1.48;;;;;;;1.08;76.72;100431.12;451179;116;922371;-72
2021/12/26 04:02:59;;;;;;;2.22;2.01;;;;;;;1.10;76.57;100439.87;443427;117;922677;-72
2021/12/26 04:04:02;;;;;;;1.49;1.26;;;;;;;1.12;76.61;100435.16;449232;116;922317;-71
2021/12/26 04:05:06;;;;;;;1.19;1.09;;;;;;;1.14;76.69;100436.70;453709;114;929944;-70
2021/12/26 04:06:10;;;;;;;1.41;1.13;;;;;;;1.15;76.59;100433.03;444535;117;930245;-71
2021/12/26 04:07:15;;;;;;;3.05;2.73;;;;;;;1.18;76.61;100434.53;452407;114;922571;-71
2021/12/26 04:08:18;;;;;;;2.27;2.08;;;;;;;1.20;76.59;100436.08;443769;117;923067;-69
2021/12/26 04:09:21;;;;;;;1.77;1.62;;;;;;;1.22;76.55;100442.11;444104;117;922735;-71
2021/12/26 04:10:25;;;;;;;1.84;1.44;;;;;;;1.24;76.51;100440.13;447233;116;922702;-71
2021/12/26 04:11:29;;;;;;;1.12;1.01;;;;;;;1.28;76.51;100434.42;446070;116;930363;-72
2021/12/26 04:12:36;;;;;;;1.87;1.65;;;;;;;1.27;76.24;100436.27;445232;116;923243;-72
2021/12/26 04:13:38;;;;;;;5.36;4.85;;;;;;;1.27;76.03;100443.50;442558;117;922848;-72
2021/12/26 04:14:42;;;;;;;3.02;2.74;;;;;;;1.25;76.12;100444.50;437730;118;922661;-72
2021/12/26 04:15:46;;;;;;;2.11;1.89;;;;;;;1.28;76.26;100447.84;453508;114;930534;-73
2021/12/26 04:16:49;;;;;;;1.96;1.69;;;;;;;1.29;76.31;100446.85;454441;116;922494;-72
2021/12/26 04:17:54;;;;;;;1.69;1.39;;;;;;;1.32;76.33;100441.19;453417;114;922568;-73
2021/12/26 04:18:58;;;;;;;2.03;1.60;;;;;;;1.34;76.31;100453.44;453908;116;930338;-72
2021/12/26 04:20:04;;;;;;;1.88;1.62;;;;;;;1.37;76.20;100457.66;446170;118;922661;-72
2021/12/26 04:21:08;;;;;;;3.03;1.84;;;;;;;1.36;75.93;100453.28;444090;117;923288;-72
2021/12/26 04:22:13;;;;;;;2.29;1.88;;;;;;;1.36;75.84;100453.28;450660;114;922629;-72
2021/12/26 04:23:16;;;;;;;3.83;2.49;;;;;;;1.37;75.86;100457.66;444430;117;923110;-73
2021/12/26 04:24:19;;;;;;;5.51;3.26;;;;;;;1.36;75.57;100450.60;440189;120;922727;-70
2021/12/26 04:25:23;;;;;;;3.01;2.53;;;;;;;1.36;75.54;100453.28;447138;117;930608;-72
2021/12/26 04:26:28;;;;;;;3.57;3.18;;;;;;;1.37;75.61;100446.92;445513;117;922646;-71
2021/12/26 04:27:31;;;;;;;2.73;2.18;;;;;;;1.39;75.66;100450.27;446269;118;923069;-73
2021/12/26 04:28:34;;;;;;;3.40;2.27;;;;;;;1.41;75.66;100450.97;446392;117;930381;-72
2021/12/26 04:29:38;;;;;;;2.27;1.95;;;;;;;1.43;75.62;100454.34;445785;117;922892;-71
2021/12/26 04:30:41;;;;;;;2.44;2.09;;;;;;;1.42;75.40;100460.71;445559;118;930591;-71
2021/12/26 04:31:45;;;;;;;2.73;2.02;;;;;;;1.42;75.34;100452.66;438746;120;923177;-72
2021/12/26 04:32:51;;;;;;;3.48;2.17;;;;;;;1.42;75.32;100460.71;435798;118;922996;-69
2021/12/26 04:33:54;;;;;;;2.50;1.78;;;;;;;1.42;75.12;100463.40;445960;117;922568;-71
2021/12/26 04:34:58;;;;;;;1.42;1.28;;;;;;;1.40;74.82;100470.77;445429;118;923103;-72
2021/12/26 04:36:02;;;;;;;1.72;1.54;;;;;;;1.38;74.67;100465.54;446349;117;923058;-73
2021/12/26 04:37:06;;;;;;;1.45;1.35;;;;;;;1.35;74.54;100467.71;446180;118;922677;-68
2021/12/26 04:38:10;;;;;;;2.39;2.14;;;;;;;1.32;74.36;100463.52;445562;117;922722;-69
2021/12/26 04:39:13;;;;;;;3.00;2.66;;;;;;;1.30;74.31;100461.97;445621;118;922618;-74
2021/12/26 04:40:18;;;;;;;2.68;1.80;;;;;;;1.28;74.32;100462.12;445338;118;924725;-73
2021/12/26 04:41:40;;;;;;;2.74;1.76;;;;;;;1.27;74.59;100451.56;446163;118;922816;-72
2021/12/26 04:42:57;;;;;;;2.23;1.57;;;;;;;1.27;74.86;100452.38;427521;123;922853;-73
2021/12/26 04:44:15;;;;;;;2.70;1.77;;;;;;;1.30;74.95;100451.23;440176;118;922597;-71
2021/12/26 04:45:25;;;;;;;3.12;2.39;;;;;;;1.31;74.90;100455.61;426705;122;922959;-74
2021/12/26 04:46:49;;;;;;;4.16;3.14;;;;;;;1.30;74.93;100453.91;445388;118;922744;-73
2021/12/26 04:48:02;;;;;;;5.15;4.43;;;;;;;1.32;75.04;100457.30;445518;118;922967;-70
2021/12/26 04:49:07;;;;;;;5.96;4.07;;;;;;;1.34;75.08;100460.65;445725;116;923010;-71
2021/12/26 04:50:17;;;;;;;5.18;4.35;;;;;;;1.35;75.03;100459.66;445880;117;923259;-70
2021/12/26 04:51:23;;;;;;;4.91;4.41;;;;;;;1.34;74.82;100461.50;446665;118;922321;-72
2021/12/26 04:52:28;;;;;;;5.40;3.83;;;;;;;1.33;74.63;100464.33;446379;118;922840;-72
2021/12/26 04:53:32;;;;;;;3.52;2.67;;;;;;;1.31;74.67;100472.57;441807;118;922933;-72
2021/12/26 04:54:36;;;;;;;6.01;4.51;;;;;;;1.30;74.61;100465.50;433432;119;930852;-72
2021/12/26 04:55:39;;;;;;;4.03;3.01;;;;;;;1.31;74.66;100469.04;443561;117;930872;-71
2021/12/26 04:56:43;;;;;;;2.88;1.91;;;;;;;1.30;74.76;100475.41;449352;115;930786;-71
2021/12/26 04:57:47;;;;;;;3.13;2.18;;;;;;;1.32;74.73;100478.78;448548;118;930384;-72
2021/12/26 04:58:51;;;;;;;2.80;2.38;;;;;;;1.31;74.73;100477.94;449373;115;930375;-74
2021/12/26 04:59:54;;;;;;;2.64;2.05;;;;;;;1.31;74.63;100477.94;449626;115;922740;-70
2021/12/26 05:00:58;;;;;;;2.51;2.10;;;;;;;1.30;74.26;100480.77;441502;118;930479;-71
2021/12/26 05:02:02;;;;;;;3.37;2.20;;;;;;;1.26;74.01;100474.89;442047;118;922681;-71
2021/12/26 05:03:07;;;;;;;2.79;2.37;;;;;;;1.22;73.86;100479.70;449456;117;922508;-72
2021/12/26 05:04:11;;;;;;;2.71;2.11;;;;;;;1.20;73.92;100484.41;449486;118;930343;-72
2021/12/26 05:05:15;;;;;;;2.97;2.49;;;;;;;1.20;74.14;100483.57;448546;117;922643;-72
2021/12/26 05:06:19;;;;;;;2.74;2.12;;;;;;;1.21;74.18;100496.00;449413;116;922633;-71
2021/12/26 05:07:22;;;;;;;2.17;1.72;;;;;;;1.21;74.06;100493.32;437485;120;922943;-71